CheckWX is a tool to help pilots better visualize weather data.  It is not intended as a substitute for an official pre-flight weather briefing.

11:39:20 UTC

PAEN TAF
Kenai Municipal Airport
Kenai, Alaska, USA
PAEN 210530Z 2106/2206 01007KT P6SM VCSH SCT040 OVC060 FM211200 18011KT 2SM -SN OVC015 FM220000 20006KT 5SM -SN OVC015

Feb-21@
06:00 UTC

Feb-21 @ 06:00 UTC

Feb-21@
12:00 UTC

Feb-21 @ 12:00 UTC

PAEN 210530Z 2106/2206 01007KT P6SM VCSH SCT040 OVC060
Wind
  • 010° at 7 KTS
Cloud Levels
  • Scattered at 4,000' AGL
  • Overcast at 6,000' AGL

Feb-21@
12:00 UTC

Feb-21 @ 12:00 UTC

Feb-22@
00:00 UTC

Feb-22 @ 00:00 UTC

FM211200 18011KT 2SM -SN OVC015

From

From Standard forecast or significant change

Wind
  • 180° at 11 KTS
Conditions
Light Snow
Cloud Levels
  • Overcast at 1,500' AGL

Feb-22@
00:00 UTC

Feb-22 @ 00:00 UTC

Feb-22@
06:00 UTC

Feb-22 @ 06:00 UTC

FM220000 20006KT 5SM -SN OVC015

From

From Standard forecast or significant change

Wind
  • 200° at 6 KTS
Conditions
Light Snow
Cloud Levels
  • Overcast at 1,500' AGL